createdAt,value
2022-08-19T00:01:53.449Z,22.61
2022-08-19T00:04:28.846Z,22.60
2022-08-19T00:07:01.407Z,22.57
2022-08-19T00:09:33.463Z,22.55
2022-08-19T00:12:06.970Z,22.53
2022-08-19T00:14:39.264Z,22.51
2022-08-19T00:17:11.727Z,22.49
2022-08-19T00:19:43.550Z,22.47
2022-08-19T00:22:15.688Z,22.45
2022-08-19T00:24:50.830Z,22.43
2022-08-19T00:27:25.709Z,22.40
2022-08-19T00:30:01.197Z,22.38
2022-08-19T00:32:34.097Z,22.35
2022-08-19T00:35:07.286Z,22.32
2022-08-19T00:37:44.205Z,22.30
2022-08-19T00:40:16.737Z,22.29
2022-08-19T00:42:49.169Z,22.27
2022-08-19T00:45:24.549Z,22.26
2022-08-19T00:47:59.765Z,22.24
2022-08-19T00:50:32.460Z,22.22
2022-08-19T00:53:06.070Z,22.22
2022-08-19T00:55:39.654Z,22.21
2022-08-19T00:58:18.479Z,22.19
2022-08-19T01:00:51.176Z,22.18
2022-08-19T01:03:24.149Z,22.15
2022-08-19T01:05:57.973Z,22.14
2022-08-19T01:08:30.361Z,22.12
2022-08-19T01:11:03.133Z,22.11
2022-08-19T01:13:49.146Z,22.08
2022-08-19T01:16:27.553Z,22.07
2022-08-19T01:18:59.434Z,22.06
2022-08-19T01:21:36.607Z,22.04
2022-08-19T01:24:09.129Z,22.03
2022-08-19T01:26:45.788Z,22.01
2022-08-19T01:29:18.926Z,22.00
2022-08-19T01:31:54.356Z,21.99
2022-08-19T01:34:26.363Z,21.97
2022-08-19T01:36:58.224Z,21.97
2022-08-19T01:39:30.368Z,21.95
2022-08-19T01:42:07.306Z,21.94
2022-08-19T01:44:39.682Z,21.93
2022-08-19T01:47:12.135Z,21.92
2022-08-19T01:49:44.039Z,21.92
2022-08-19T01:52:15.961Z,21.90
2022-08-19T01:54:47.737Z,21.90
2022-08-19T01:57:19.975Z,21.88
2022-08-19T01:59:52.183Z,21.86
2022-08-19T02:02:24.111Z,21.86
2022-08-19T02:04:55.992Z,21.84
2022-08-19T02:09:36.653Z,21.86
2022-08-19T02:12:09.907Z,21.83
2022-08-19T02:14:42.126Z,21.82
2022-08-19T02:17:16.550Z,21.81
2022-08-19T02:19:50.093Z,21.80
2022-08-19T02:22:22.093Z,21.80
2022-08-19T02:24:54.157Z,21.79
2022-08-19T02:27:27.524Z,21.78
2022-08-19T02:29:59.355Z,21.76
2022-08-19T02:32:32.046Z,21.76
2022-08-19T02:35:12.148Z,21.73
2022-08-19T02:38:03.489Z,21.72
2022-08-19T02:40:36.287Z,21.70
2022-08-19T02:43:09.572Z,21.70
2022-08-19T02:45:42.492Z,21.69
2022-08-19T02:48:21.807Z,21.68
2022-08-19T02:50:56.132Z,21.66
2022-08-19T02:53:30.569Z,21.64
2022-08-19T02:56:02.413Z,21.61
2022-08-19T02:58:34.304Z,21.60
2022-08-19T03:01:06.880Z,21.57
2022-08-19T03:03:39.119Z,21.55
2022-08-19T03:06:14.650Z,21.53
2022-08-19T03:08:48.340Z,21.51
2022-08-19T03:11:22.539Z,21.49
2022-08-19T03:13:55.444Z,21.48
2022-08-19T03:16:33.540Z,21.47
2022-08-19T03:19:05.719Z,21.45
2022-08-19T03:21:37.657Z,21.44
2022-08-19T03:24:11.180Z,21.43
2022-08-19T03:26:44.940Z,21.41
2022-08-19T03:29:18.243Z,21.41
2022-08-19T03:32:05.076Z,21.40
2022-08-19T03:34:39.023Z,21.39
2022-08-19T03:37:15.932Z,21.39
2022-08-19T03:39:47.903Z,21.39
2022-08-19T03:42:38.297Z,21.39
2022-08-19T03:45:12.596Z,21.39
2022-08-19T03:47:44.620Z,21.40
2022-08-19T03:50:16.509Z,21.42
2022-08-19T03:52:52.658Z,21.41
2022-08-19T03:59:01.033Z,21.44
2022-08-19T04:01:35.533Z,21.46
2022-08-19T04:04:08.103Z,21.46
2022-08-19T04:06:42.484Z,21.48
2022-08-19T04:09:15.095Z,21.50
2022-08-19T04:11:49.202Z,21.52
2022-08-19T04:14:25.158Z,21.56
2022-08-19T04:16:57.313Z,21.58
2022-08-19T04:19:31.130Z,21.60
2022-08-19T04:22:03.395Z,21.64
2022-08-19T04:24:37.718Z,21.65
2022-08-19T04:27:09.806Z,21.69
2022-08-19T04:29:42.479Z,21.71
2022-08-19T04:32:16.879Z,21.74
2022-08-19T04:35:02.654Z,21.76
2022-08-19T04:37:41.898Z,21.79
2022-08-19T04:40:32.754Z,21.81
2022-08-19T04:43:04.606Z,21.84
2022-08-19T04:45:43.455Z,21.85
2022-08-19T04:48:26.143Z,21.88
2022-08-19T04:51:14.410Z,21.91
2022-08-19T04:53:46.893Z,21.94
2022-08-19T04:56:21.841Z,21.97
2022-08-19T04:58:54.676Z,22.00
2022-08-19T05:01:30.681Z,22.03
2022-08-19T05:04:05.265Z,22.05
2022-08-19T05:06:38.467Z,22.08
2022-08-19T05:09:10.301Z,22.11
2022-08-19T05:11:42.512Z,22.12
2022-08-19T05:14:14.883Z,22.14
2022-08-19T05:16:46.719Z,22.15
2022-08-19T05:19:37.371Z,22.18
2022-08-19T05:22:26.945Z,22.19
2022-08-19T05:25:12.092Z,22.22
2022-08-19T05:27:44.874Z,22.26
2022-08-19T05:30:17.458Z,22.31
2022-08-19T05:32:49.477Z,22.36
2022-08-19T05:35:21.418Z,22.40
2022-08-19T05:37:58.912Z,22.44
2022-08-19T05:40:31.474Z,22.47
2022-08-19T05:43:03.362Z,22.49
2022-08-19T05:45:39.802Z,22.52
2022-08-19T05:48:12.434Z,22.55
2022-08-19T05:50:46.378Z,22.59
2022-08-19T05:53:19.772Z,22.64
2022-08-19T05:55:51.829Z,22.69
2022-08-19T05:58:25.077Z,22.76
2022-08-19T06:01:05.316Z,22.82
2022-08-19T06:03:38.368Z,22.88
2022-08-19T06:06:11.922Z,22.94
2022-08-19T06:08:46.415Z,23.01
2022-08-19T06:11:22.292Z,23.07
2022-08-19T06:14:00.202Z,23.14
2022-08-19T06:16:36.158Z,23.20
2022-08-19T06:19:11.482Z,23.25
2022-08-19T06:21:44.867Z,23.32
2022-08-19T06:24:20.059Z,23.40
2022-08-19T06:26:56.727Z,23.47
2022-08-19T06:29:33.111Z,23.56
2022-08-19T06:32:06.067Z,23.68
2022-08-19T06:34:38.244Z,23.77
2022-08-19T06:37:10.629Z,23.87
2022-08-19T06:39:45.296Z,23.98
2022-08-19T06:42:19.537Z,24.09
2022-08-19T06:44:53.876Z,24.20
2022-08-19T06:47:28.713Z,24.33
2022-08-19T06:50:04.057Z,24.44
2022-08-19T06:52:38.567Z,24.55
2022-08-19T06:55:13.228Z,24.65
2022-08-19T06:57:47.359Z,24.77
2022-08-19T07:00:19.688Z,24.88
2022-08-19T07:02:57.260Z,24.99
2022-08-19T07:05:31.342Z,25.11
2022-08-19T07:08:06.565Z,25.20
2022-08-19T07:10:38.704Z,25.30
2022-08-19T07:13:15.218Z,25.38
2022-08-19T07:15:48.215Z,25.49
2022-08-19T07:18:22.590Z,25.56
2022-08-19T07:21:04.060Z,25.64
2022-08-19T07:26:16.887Z,25.77
2022-08-19T07:28:52.850Z,25.84
2022-08-19T07:31:28.077Z,25.93
2022-08-19T07:34:03.521Z,26.03
2022-08-19T07:36:36.886Z,26.08
2022-08-19T07:39:12.275Z,26.15
2022-08-19T07:41:45.376Z,26.22
2022-08-19T07:44:18.766Z,26.30
2022-08-19T07:46:53.585Z,26.38
2022-08-19T07:49:26.692Z,26.43
2022-08-19T07:52:03.167Z,26.49
2022-08-19T07:54:38.205Z,26.55
2022-08-19T07:57:10.292Z,26.63
2022-08-19T07:59:42.251Z,26.68
2022-08-19T08:02:14.084Z,26.74
2022-08-19T08:05:03.570Z,26.81
2022-08-19T08:07:53.292Z,26.87
2022-08-19T08:10:25.299Z,26.91
2022-08-19T08:13:10.224Z,26.97
2022-08-19T08:15:43.781Z,27.03
2022-08-19T08:18:15.788Z,27.08
2022-08-19T08:20:47.651Z,27.09
2022-08-19T08:23:26.166Z,27.11
2022-08-19T08:26:00.166Z,27.13
2022-08-19T08:28:32.055Z,27.18
2022-08-19T08:31:09.516Z,27.20
2022-08-19T08:33:43.011Z,27.23
2022-08-19T08:36:15.877Z,27.27
2022-08-19T08:38:48.184Z,27.31
2022-08-19T08:41:30.533Z,27.36
2022-08-19T08:44:05.179Z,27.42
2022-08-19T08:46:43.996Z,27.48
2022-08-19T08:49:27.446Z,27.55
2022-08-19T08:52:04.593Z,27.63
2022-08-19T08:54:41.178Z,27.69
2022-08-19T08:57:34.875Z,27.74
2022-08-19T09:00:20.742Z,27.79
2022-08-19T09:02:52.803Z,27.84
2022-08-19T09:05:29.159Z,27.88
2022-08-19T09:08:19.313Z,27.94
2022-08-19T09:10:55.696Z,27.98
2022-08-19T09:13:37.959Z,27.99
2022-08-19T09:16:15.078Z,28.05
2022-08-19T09:18:53.902Z,28.10
2022-08-19T09:21:33.170Z,28.18
2022-08-19T09:24:07.179Z,28.26
2022-08-19T09:26:48.416Z,28.32
2022-08-19T09:29:27.352Z,28.34
2022-08-19T09:31:59.247Z,28.39
2022-08-19T09:34:31.735Z,28.43
2022-08-19T09:37:09.988Z,28.46
2022-08-19T09:39:43.839Z,28.50
2022-08-19T09:42:30.002Z,28.56
2022-08-19T09:45:05.087Z,28.60
2022-08-19T09:47:42.580Z,28.63
2022-08-19T09:50:16.813Z,28.67
2022-08-19T09:52:55.098Z,28.72
2022-08-19T09:55:31.927Z,28.76
2022-08-19T09:58:05.985Z,28.79
2022-08-19T10:00:41.041Z,28.84
2022-08-19T10:03:13.651Z,28.95
2022-08-19T10:05:55.215Z,29.02
2022-08-19T10:08:31.320Z,29.11
2022-08-19T10:11:28.692Z,29.20
2022-08-19T10:13:58.059Z,29.31
2022-08-19T10:16:30.397Z,29.34
2022-08-19T10:19:05.918Z,29.36
2022-08-19T10:21:38.203Z,29.39
2022-08-19T10:24:12.650Z,29.44
2022-08-19T10:26:48.510Z,29.48
2022-08-19T10:29:31.937Z,29.55
2022-08-19T10:32:09.732Z,29.61
2022-08-19T10:34:48.919Z,29.68
2022-08-19T10:37:23.953Z,29.70
2022-08-19T10:40:02.967Z,29.70
2022-08-19T10:42:34.942Z,29.69
2022-08-19T10:45:10.643Z,29.71
2022-08-19T10:47:42.514Z,29.74
2022-08-19T10:50:32.569Z,29.76
2022-08-19T10:53:10.569Z,29.79
2022-08-19T10:56:00.185Z,29.81
2022-08-19T10:58:32.430Z,29.88
2022-08-19T11:01:04.637Z,29.95
2022-08-19T11:03:36.679Z,30.00
2022-08-19T11:06:10.836Z,30.04
2022-08-19T11:08:48.811Z,30.07
2022-08-19T11:11:21.065Z,30.08
2022-08-19T11:13:54.126Z,30.10
2022-08-19T11:16:31.227Z,30.14
2022-08-19T11:19:04.887Z,30.15
2022-08-19T11:21:41.054Z,30.18
2022-08-19T11:24:17.715Z,30.26
2022-08-19T11:26:57.914Z,30.28
2022-08-19T11:29:30.239Z,30.30
2022-08-19T11:32:05.698Z,30.33
2022-08-19T11:34:38.075Z,30.35
2022-08-19T11:37:10.400Z,30.39
2022-08-19T11:39:42.321Z,30.41
2022-08-19T11:42:34.681Z,30.43
2022-08-19T11:45:12.739Z,30.46
2022-08-19T11:47:45.135Z,30.51
2022-08-19T11:50:17.291Z,30.53
2022-08-19T11:52:51.118Z,30.53
2022-08-19T11:55:23.480Z,30.54
2022-08-19T11:57:55.630Z,30.58
2022-08-19T12:00:27.893Z,30.61
2022-08-19T12:03:00.566Z,30.64
2022-08-19T12:05:32.572Z,30.68
2022-08-19T12:08:07.511Z,30.71
2022-08-19T12:10:39.744Z,30.71
2022-08-19T12:13:12.242Z,30.71
2022-08-19T12:15:45.988Z,30.74
2022-08-19T12:18:19.258Z,30.75
2022-08-19T12:20:53.280Z,30.75
2022-08-19T12:23:25.526Z,30.75
2022-08-19T12:26:00.237Z,30.78
2022-08-19T12:28:32.679Z,30.81
2022-08-19T12:31:05.177Z,30.83
2022-08-19T12:33:37.522Z,30.86
2022-08-19T12:36:12.831Z,30.94
2022-08-19T12:38:46.295Z,30.99
2022-08-19T12:41:19.713Z,31.06
2022-08-19T12:43:52.451Z,31.06
2022-08-19T12:46:26.174Z,31.07
2022-08-19T12:49:00.589Z,31.12
2022-08-19T12:51:37.170Z,31.12
2022-08-19T12:54:09.209Z,31.14
2022-08-19T12:56:43.568Z,31.13
2022-08-19T12:59:17.711Z,31.12
2022-08-19T13:01:49.799Z,31.14
2022-08-19T13:04:23.926Z,31.19
2022-08-19T13:06:55.794Z,31.21
2022-08-19T13:09:28.197Z,31.20
2022-08-19T13:12:03.946Z,31.18
2022-08-19T13:14:36.681Z,31.22
2022-08-19T13:17:12.849Z,31.21
2022-08-19T13:19:44.714Z,31.17
2022-08-19T13:22:16.647Z,31.18
2022-08-19T13:24:54.375Z,31.19
2022-08-19T13:27:26.448Z,31.20
2022-08-19T13:30:16.190Z,31.17
2022-08-19T13:33:05.726Z,31.18
2022-08-19T13:35:40.858Z,31.24
2022-08-19T13:38:13.943Z,31.28
2022-08-19T13:40:47.518Z,31.27
2022-08-19T13:43:23.035Z,31.28
2022-08-19T13:45:57.877Z,31.30
2022-08-19T13:48:32.714Z,31.36
2022-08-19T13:51:07.101Z,31.39
2022-08-19T13:53:39.778Z,31.42
2022-08-19T13:56:22.984Z,31.41
2022-08-19T13:58:59.415Z,31.38
2022-08-19T14:01:32.946Z,31.36
2022-08-19T14:04:06.881Z,31.37
2022-08-19T14:06:39.124Z,31.37
2022-08-19T14:09:10.985Z,31.36
2022-08-19T14:11:42.827Z,31.37
2022-08-19T14:14:16.542Z,31.39
2022-08-19T14:16:49.753Z,31.37
2022-08-19T14:19:22.641Z,31.33
2022-08-19T14:21:58.912Z,31.30
2022-08-19T14:24:33.112Z,31.30
2022-08-19T14:27:05.380Z,31.29
2022-08-19T14:29:38.015Z,31.31
2022-08-19T14:32:13.043Z,31.27
2022-08-19T14:34:48.764Z,31.18
2022-08-19T14:37:20.695Z,31.14
2022-08-19T14:39:54.266Z,31.10
2022-08-19T14:42:26.316Z,31.11
2022-08-19T14:45:01.722Z,31.15
2022-08-19T14:47:33.650Z,31.19
2022-08-19T14:50:07.546Z,31.22
2022-08-19T14:52:45.241Z,31.31
2022-08-19T14:55:20.123Z,31.37
2022-08-19T14:57:55.893Z,31.42
2022-08-19T15:00:30.707Z,31.42
2022-08-19T15:03:02.748Z,31.43
2022-08-19T15:05:34.663Z,31.43
2022-08-19T15:08:13.451Z,31.40
2022-08-19T15:10:46.847Z,31.35
2022-08-19T15:13:18.964Z,31.34
2022-08-19T15:15:52.741Z,31.30
2022-08-19T15:18:25.494Z,31.26
2022-08-19T15:20:58.015Z,31.21
2022-08-19T15:23:30.045Z,31.20
2022-08-19T15:26:02.117Z,31.13
2022-08-19T15:28:34.096Z,31.09
2022-08-19T15:31:06.810Z,31.04
2022-08-19T15:33:45.196Z,31.03
2022-08-19T15:36:21.136Z,31.05
2022-08-19T15:38:54.126Z,31.03
2022-08-19T15:41:28.101Z,31.00
2022-08-19T15:44:02.377Z,30.96
2022-08-19T15:46:35.810Z,30.96
2022-08-19T15:49:09.258Z,30.98
2022-08-19T15:51:43.240Z,30.95
2022-08-19T15:54:21.571Z,30.92
2022-08-19T15:57:12.086Z,30.91
2022-08-19T16:00:02.851Z,30.86
2022-08-19T16:02:54.803Z,30.82
2022-08-19T16:05:45.855Z,30.76
2022-08-19T16:08:18.480Z,30.75
2022-08-19T16:10:50.479Z,30.72
2022-08-19T16:13:22.583Z,30.70
2022-08-19T16:15:57.245Z,30.70
2022-08-19T16:18:29.807Z,30.71
2022-08-19T16:21:01.919Z,30.72
2022-08-19T16:23:34.403Z,30.71
2022-08-19T16:26:06.854Z,30.69
2022-08-19T16:28:39.863Z,30.68
2022-08-19T16:31:13.604Z,30.68
2022-08-19T16:33:45.617Z,30.66
2022-08-19T16:36:17.869Z,30.63
2022-08-19T16:38:50.190Z,30.59
2022-08-19T16:41:23.298Z,30.53
2022-08-19T16:43:55.580Z,30.50
2022-08-19T16:46:28.302Z,30.47
2022-08-19T16:49:00.660Z,30.42
2022-08-19T16:51:33.904Z,30.41
2022-08-19T16:54:07.752Z,30.42
2022-08-19T16:56:39.989Z,30.39
2022-08-19T16:59:13.905Z,30.39
2022-08-19T17:01:45.960Z,30.37
2022-08-19T17:04:18.116Z,30.35
2022-08-19T17:06:52.368Z,30.30
2022-08-19T17:09:25.858Z,30.25
2022-08-19T17:11:58.918Z,30.20
2022-08-19T17:14:31.649Z,30.18
2022-08-19T17:17:03.704Z,30.12
2022-08-19T17:19:36.471Z,30.08
2022-08-19T17:22:11.453Z,30.02
2022-08-19T17:24:43.479Z,29.99
2022-08-19T17:27:15.492Z,29.95
2022-08-19T17:29:47.469Z,29.89
2022-08-19T17:32:25.445Z,29.82
2022-08-19T17:34:58.029Z,29.77
2022-08-19T17:37:30.031Z,29.72
2022-08-19T17:40:02.728Z,29.66
2022-08-19T17:42:35.352Z,29.62
2022-08-19T17:45:11.279Z,29.60
2022-08-19T17:47:43.612Z,29.55
2022-08-19T17:50:18.802Z,29.52
2022-08-19T17:52:52.495Z,29.49
2022-08-19T17:55:25.831Z,29.44
2022-08-19T17:57:58.213Z,29.39
2022-08-19T18:00:30.454Z,29.35
2022-08-19T18:03:07.646Z,29.31
2022-08-19T18:05:46.513Z,29.25
2022-08-19T18:08:18.677Z,29.20
2022-08-19T18:10:50.900Z,29.16
2022-08-19T18:13:25.520Z,29.11
2022-08-19T18:15:58.718Z,29.05
2022-08-19T18:18:32.732Z,29.02
2022-08-19T18:21:04.759Z,28.97
2022-08-19T18:23:43.852Z,28.95
2022-08-19T18:26:17.732Z,28.93
2022-08-19T18:28:51.828Z,28.87
2022-08-19T18:31:24.523Z,28.84
2022-08-19T18:33:56.702Z,28.80
2022-08-19T18:36:52.624Z,28.78
2022-08-19T18:39:39.423Z,28.73
2022-08-19T18:42:40.425Z,28.68
2022-08-19T18:45:30.878Z,28.64
2022-08-19T18:48:26.504Z,28.62
2022-08-19T18:51:01.940Z,28.57
2022-08-19T18:53:35.764Z,28.55
2022-08-19T18:56:09.095Z,28.51
2022-08-19T18:58:44.624Z,28.47
2022-08-19T19:01:19.058Z,28.43
2022-08-19T19:03:54.217Z,28.38
2022-08-19T19:06:35.856Z,28.34
2022-08-19T19:09:09.876Z,28.32
2022-08-19T19:11:55.962Z,28.31
2022-08-19T19:14:48.231Z,28.26
2022-08-19T19:17:28.547Z,28.23
2022-08-19T19:20:00.938Z,28.21
2022-08-19T19:22:33.688Z,28.17
2022-08-19T19:25:11.894Z,28.13
2022-08-19T19:27:43.969Z,28.10
2022-08-19T19:30:16.118Z,28.08
2022-08-19T19:32:48.635Z,28.05
2022-08-19T19:35:20.605Z,28.00
2022-08-19T19:37:52.893Z,27.98
2022-08-19T19:40:28.022Z,27.96
2022-08-19T19:43:04.888Z,27.91
2022-08-19T19:45:37.995Z,27.89
2022-08-19T19:48:10.012Z,27.88
2022-08-19T19:50:44.625Z,27.84
2022-08-19T19:53:20.207Z,27.83
2022-08-19T19:55:54.868Z,27.80
2022-08-19T19:58:31.310Z,27.75
2022-08-19T20:01:09.540Z,27.72
2022-08-19T20:03:42.960Z,27.70
2022-08-19T20:06:19.539Z,27.68
2022-08-19T20:09:10.642Z,27.66
2022-08-19T20:11:48.332Z,27.62
2022-08-19T20:14:28.128Z,27.60
2022-08-19T20:17:01.769Z,27.57
2022-08-19T20:19:37.408Z,27.54
2022-08-19T20:22:10.574Z,27.51
2022-08-19T20:24:44.873Z,27.49
2022-08-19T20:27:17.176Z,27.47
2022-08-19T20:29:50.093Z,27.43
2022-08-19T20:32:24.270Z,27.41
2022-08-19T20:34:58.966Z,27.40
2022-08-19T20:37:30.841Z,27.37
2022-08-19T20:40:06.444Z,27.33
2022-08-19T20:42:40.497Z,27.29
2022-08-19T20:45:33.074Z,27.27
2022-08-19T20:48:08.734Z,27.24
2022-08-19T20:50:41.101Z,27.18
2022-08-19T20:53:16.232Z,27.12
2022-08-19T20:55:50.388Z,27.06
2022-08-19T20:58:23.634Z,27.01
2022-08-19T21:01:01.499Z,26.96
2022-08-19T21:03:36.294Z,26.92
2022-08-19T21:06:16.288Z,26.88
2022-08-19T21:08:52.167Z,26.85
2022-08-19T21:11:26.791Z,26.82
2022-08-19T21:13:58.659Z,26.78
2022-08-19T21:16:32.732Z,26.70
2022-08-19T21:19:08.252Z,26.66
2022-08-19T21:21:40.140Z,26.64
2022-08-19T21:24:12.044Z,26.64
2022-08-19T21:26:49.442Z,26.62
2022-08-19T21:29:23.425Z,26.59
2022-08-19T21:31:55.445Z,26.56
2022-08-19T21:34:27.728Z,26.53
2022-08-19T21:37:02.392Z,26.50
2022-08-19T21:39:34.566Z,26.48
2022-08-19T21:42:07.630Z,26.45
2022-08-19T21:44:40.805Z,26.41
2022-08-19T21:47:18.028Z,26.34
2022-08-19T21:49:49.900Z,26.29
2022-08-19T21:52:25.971Z,26.25
2022-08-19T21:54:59.316Z,26.19
2022-08-19T21:57:31.169Z,26.12
2022-08-19T22:00:03.109Z,26.12
2022-08-19T22:02:37.711Z,26.09
2022-08-19T22:05:10.462Z,26.07
2022-08-19T22:07:42.918Z,26.06
2022-08-19T22:10:14.835Z,26.04
2022-08-19T22:12:51.766Z,26.01
2022-08-19T22:15:27.534Z,25.96
2022-08-19T22:18:01.644Z,25.91
2022-08-19T22:20:36.164Z,25.88
2022-08-19T22:23:09.490Z,25.85
2022-08-19T22:25:44.480Z,25.85
2022-08-19T22:28:27.769Z,25.85
2022-08-19T22:31:00.197Z,25.83
2022-08-19T22:33:37.452Z,25.81
2022-08-19T22:36:10.126Z,25.79
2022-08-19T22:38:42.061Z,25.77
2022-08-19T22:41:16.546Z,25.76
2022-08-19T22:43:48.940Z,25.74
2022-08-19T22:46:21.240Z,25.71
2022-08-19T22:49:01.164Z,25.66
2022-08-19T22:51:51.439Z,25.63
2022-08-19T22:54:23.365Z,25.60
2022-08-19T22:56:55.164Z,25.55
2022-08-19T22:59:27.149Z,25.49
2022-08-19T23:01:59.210Z,25.47
2022-08-19T23:04:31.247Z,25.43
2022-08-19T23:07:03.728Z,25.36
2022-08-19T23:09:35.887Z,25.30
2022-08-19T23:12:12.841Z,25.26
2022-08-19T23:14:47.274Z,25.20
2022-08-19T23:17:20.442Z,25.15
2022-08-19T23:19:53.448Z,25.11
2022-08-19T23:22:25.796Z,25.07
2022-08-19T23:25:02.674Z,25.03
2022-08-19T23:27:52.607Z,24.98
2022-08-19T23:30:27.473Z,24.95
2022-08-19T23:33:01.604Z,24.92
2022-08-19T23:35:41.763Z,24.88
2022-08-19T23:38:15.885Z,24.86
2022-08-19T23:40:49.995Z,24.82
2022-08-19T23:43:29.732Z,24.79
2022-08-19T23:46:03.994Z,24.73
2022-08-19T23:48:43.131Z,24.68
2022-08-19T23:51:17.583Z,24.64
2022-08-19T23:53:49.506Z,24.60
2022-08-19T23:56:22.514Z,24.53
2022-08-19T23:58:55.409Z,24.49
